Amherst, OH

10:07 PM EDT on October 01, 2014 (GMT -0400)
Vermilion Township | Change Station
CLOSE
Current Station
Personal Weather Station
Location: Vermilion, OH
Elevation: 689 ft
Nearby Weather Stations

Elev 689 ft 41.39 °N, 82.36 °W | Updated 10 minutes ago

Fog
Fog
55.4 °F
Feels Like 55.4 °F
N
0.0
Wind Variable Wind from ENE

Today
High -- | Low -- °F
--% Chance of Precip.
Yesterday
High -- | Low -- °F
Precip. -- in
7:25 AM 7:10 PM
First Quarter, 53% visible
Pressure 30.05 in
Visibility 2.0 miles
Clouds Overcast 2200 ft
Dew Point 53 °F
Humidity 91%
Rainfall 0.00 in
Snow Depth Not available.
UV 0 out of 12
Pollen .50 out of 12
Ozone Unhealthy for Sensitive Groups
PM2.5 Moderate
Flu Activity Not available.
SPECI KLPR 020158Z AUTO 00000KT 2SM BR OVC022 15/13 A3005 RMK AO2 T01500133 TSNO

More Conditions Fewer Conditions

Pressure 30.05 in
Visibility 2.0 miles
Clouds Overcast 2200 ft
Dew Point 53 °F
Humidity 91%
Rainfall 0.00 in
Snow Depth Not available.
UV 0 out of 12
Pollen .50 out of 12
Ozone Unhealthy for Sensitive Groups
PM2.5 Moderate
Flu Activity Not available.
SPECI KLPR 020158Z AUTO 00000KT 2SM BR OVC022 15/13 A3005 RMK AO2 T01500133 TSNO

More Conditions Fewer Conditions

10-Day Weather Forecast

Almanac

Astronomy

Oct. 01, 2014 Rise Set
Actual Time 7:25 AM EDT 7:10 PM EDT
Civil Twilight 6:58 AM EDT 7:38 PM EDT
Nautical Twilight 6:26 AM EDT 8:10 PM EDT
Astronomical Twilight 5:53 AM EDT 8:42 PM EDT
Moon 2:28 PM EDT (10/1) No Moon Set
Length of Visible Light 12h 40m
Length of Day
11h 45m
Tomorrow will be 2m 43s shorter.
First Quarter, 53% of the Moon is Illuminated
Today
First Quarter
Oct 8
Full
Oct 15
Last Quarter
Oct 23
New
Oct 30
First Quarter

Today's Extremes

State Highs State Lows

Community

WunderPhotos

Upload Photos

1,758,124 photos uploaded!

WunderBlogs® & News

Nearby

Air Quality

  Air Quality AQ Index Pollutant
Yesterday Good
OZONE
Yesterday Good
PM10
Current Unhealthy for Sensitive Groups
OZONE
Current Moderate
PM2.5
Wednesday Moderate
PM2.5
Wednesday Good
OZONE
Thursday Moderate
PM2.5
Thursday Good
OZONE

Snow Depth

Station Depth Elevation
No new snow has been reported.

Earthquake Activity

City Distance Mag. Time & Date
No recent earthquake activity has been reported nearby.
Minimum magnitude displayed is 2.5.

Coastal Water Temperatures

Place Temperature
Cleveland, OH 66.0 °F
Marblehead, OH 66.0 °F
Fairport, OH 66.9 °F

Nearby Weather Stations